createdAt,value
2023-05-19T00:02:22.446Z,102819.75
2023-05-19T00:04:49.581Z,102823.94
2023-05-19T00:07:18.935Z,102823.75
2023-05-19T00:09:45.463Z,102829.81
2023-05-19T00:12:12.266Z,102823.50
2023-05-19T00:14:38.809Z,102827.81
2023-05-19T00:17:05.340Z,102834.75
2023-05-19T00:19:32.384Z,102819.78
2023-05-19T00:21:59.035Z,102820.63
2023-05-19T00:24:25.404Z,102822.81
2023-05-19T00:26:51.773Z,102821.06
2023-05-19T00:29:19.055Z,102821.69
2023-05-19T00:31:45.462Z,102818.19
2023-05-19T00:34:11.879Z,102816.38
2023-05-19T00:36:38.248Z,102814.34
2023-05-19T00:39:04.747Z,102813.22
2023-05-19T00:41:31.125Z,102815.84
2023-05-19T00:43:57.547Z,102811.34
2023-05-19T00:46:23.987Z,102808.38
2023-05-19T00:48:50.418Z,102801.97
2023-05-19T00:51:17.313Z,102812.38
2023-05-19T00:53:48.412Z,102800.81
2023-05-19T00:56:16.539Z,102808.41
2023-05-19T00:58:43.635Z,102801.34
2023-05-19T01:01:12.107Z,102795.03
2023-05-19T01:03:40.768Z,102806.84
2023-05-19T01:06:07.837Z,102794.50
2023-05-19T01:08:35.710Z,102801.53
2023-05-19T01:11:02.381Z,102796.00
2023-05-19T01:13:29.064Z,102793.25
2023-05-19T01:16:01.619Z,102799.81
2023-05-19T01:18:44.681Z,102796.19
2023-05-19T01:21:11.015Z,102799.53
2023-05-19T01:23:49.369Z,102797.44
2023-05-19T01:26:41.787Z,102797.34
2023-05-19T01:29:16.747Z,102798.78
2023-05-19T01:31:45.070Z,102806.44
2023-05-19T01:34:12.149Z,102804.53
2023-05-19T01:36:38.667Z,102807.97
2023-05-19T01:39:05.281Z,102806.19
2023-05-19T01:41:33.685Z,102807.88
2023-05-19T01:44:00.408Z,102803.38
2023-05-19T01:46:26.852Z,102803.28
2023-05-19T01:48:53.544Z,102806.91
2023-05-19T01:51:19.967Z,102810.22
2023-05-19T01:53:46.502Z,102817.06
2023-05-19T01:56:16.194Z,102823.81
2023-05-19T01:58:46.951Z,102831.44
2023-05-19T02:01:21.926Z,102835.88
2023-05-19T02:03:51.226Z,102828.75
2023-05-19T02:06:32.749Z,102829.56
2023-05-19T02:09:12.294Z,102831.06
2023-05-19T02:11:58.903Z,102831.16
2023-05-19T02:14:29.903Z,102834.78
2023-05-19T02:16:57.288Z,102835.50
2023-05-19T02:19:24.788Z,102836.22
2023-05-19T02:21:51.285Z,102832.59
2023-05-19T02:24:17.923Z,102832.50
2023-05-19T02:26:44.307Z,102824.66
2023-05-19T02:29:10.724Z,102836.00
2023-05-19T02:31:37.090Z,102832.50
2023-05-19T02:34:03.465Z,102835.91
2023-05-19T02:36:30.766Z,102832.38
2023-05-19T02:38:57.189Z,102833.81
2023-05-19T02:41:23.541Z,102837.34
2023-05-19T02:43:49.955Z,102838.31
2023-05-19T02:46:16.342Z,102839.13
2023-05-19T02:48:42.805Z,102834.00
2023-05-19T02:51:09.170Z,102834.72
2023-05-19T02:53:35.882Z,102829.41
2023-05-19T02:56:02.238Z,102832.03
2023-05-19T02:58:28.620Z,102829.09
2023-05-19T03:00:56.016Z,102826.78
2023-05-19T03:03:22.685Z,102832.03
2023-05-19T03:05:49.183Z,102820.75
2023-05-19T03:08:15.579Z,102824.38
2023-05-19T03:10:41.923Z,102814.81
2023-05-19T03:13:08.276Z,102829.59
2023-05-19T03:15:35.228Z,102819.94
2023-05-19T03:18:01.611Z,102823.56
2023-05-19T03:20:28.059Z,102823.66
2023-05-19T03:22:54.426Z,102818.53
2023-05-19T03:25:20.858Z,102818.53
2023-05-19T03:27:47.217Z,102812.50
2023-05-19T03:30:13.806Z,102816.09
2023-05-19T03:32:40.239Z,102820.44
2023-05-19T03:35:07.808Z,102816.19
2023-05-19T03:37:34.245Z,102811.47
2023-05-19T03:40:00.833Z,102810.56
2023-05-19T03:42:27.260Z,102820.47
2023-05-19T03:44:53.733Z,102826.88
2023-05-19T03:47:20.108Z,102820.22
2023-05-19T03:49:46.448Z,102821.13
2023-05-19T03:52:12.967Z,102821.25
2023-05-19T03:54:42.744Z,102826.47
2023-05-19T03:57:10.137Z,102826.63
2023-05-19T03:59:37.446Z,102825.84
2023-05-19T04:02:03.961Z,102821.06
2023-05-19T04:04:30.680Z,102823.97
2023-05-19T04:06:57.902Z,102828.56
2023-05-19T04:09:24.252Z,102818.28
2023-05-19T04:11:50.766Z,102829.94
2023-05-19T04:14:17.133Z,102828.69
2023-05-19T04:16:43.505Z,102828.59
2023-05-19T04:19:09.919Z,102839.50
2023-05-19T04:21:36.407Z,102840.13
2023-05-19T04:24:06.288Z,102840.41
2023-05-19T04:26:34.557Z,102837.31
2023-05-19T04:29:04.829Z,102842.81
2023-05-19T04:31:31.278Z,102841.38
2023-05-19T04:33:57.706Z,102849.59
2023-05-19T04:36:24.066Z,102848.13
2023-05-19T04:38:54.671Z,102856.69
2023-05-19T04:41:21.829Z,102860.53
2023-05-19T04:43:48.373Z,102859.16
2023-05-19T04:46:14.824Z,102847.50
2023-05-19T04:48:41.437Z,102850.88
2023-05-19T04:51:07.975Z,102855.72
2023-05-19T04:53:34.397Z,102852.72
2023-05-19T04:56:02.059Z,102853.47
2023-05-19T04:58:28.518Z,102850.09
2023-05-19T05:01:00.816Z,102849.75
2023-05-19T05:03:27.317Z,102843.69
2023-05-19T05:05:53.815Z,102848.91
2023-05-19T05:08:23.305Z,102853.09
2023-05-19T05:10:51.028Z,102844.19
2023-05-19T05:13:17.558Z,102842.09
2023-05-19T05:15:44.142Z,102844.75
2023-05-19T05:18:10.780Z,102837.84
2023-05-19T05:20:37.377Z,102850.91
2023-05-19T05:23:03.949Z,102851.47
2023-05-19T05:25:30.672Z,102846.66
2023-05-19T05:27:58.910Z,102841.13
2023-05-19T05:30:25.566Z,102836.53
2023-05-19T05:32:52.068Z,102832.56
2023-05-19T05:35:18.564Z,102827.69
2023-05-19T05:37:44.908Z,102834.03
2023-05-19T05:40:11.601Z,102841.19
2023-05-19T05:42:37.950Z,102828.13
2023-05-19T05:45:04.612Z,102824.09
2023-05-19T05:47:31.231Z,102832.56
2023-05-19T05:49:57.781Z,102828.50
2023-05-19T05:52:26.309Z,102829.56
2023-05-19T05:54:52.796Z,102836.00
2023-05-19T05:57:19.331Z,102832.69
2023-05-19T05:59:47.147Z,102832.13
2023-05-19T06:02:13.808Z,102828.28
2023-05-19T06:04:40.743Z,102824.28
2023-05-19T06:07:07.122Z,102823.72
2023-05-19T06:09:33.516Z,102821.66
2023-05-19T06:12:02.910Z,102821.41
2023-05-19T06:14:29.264Z,102816.16
2023-05-19T06:16:55.752Z,102821.44
2023-05-19T06:19:22.284Z,102820.84
2023-05-19T06:21:48.717Z,102823.53
2023-05-19T06:24:15.065Z,102819.69
2023-05-19T06:26:41.438Z,102824.44
2023-05-19T06:29:08.058Z,102816.69
2023-05-19T06:31:34.555Z,102819.41
2023-05-19T06:34:01.238Z,102816.22
2023-05-19T06:36:27.591Z,102811.88
2023-05-19T06:38:54.002Z,102813.88
2023-05-19T06:41:21.653Z,102804.28
2023-05-19T06:43:48.068Z,102806.34
2023-05-19T06:46:14.470Z,102807.47
2023-05-19T06:48:40.890Z,102811.63
2023-05-19T06:51:07.244Z,102812.59
2023-05-19T06:53:33.684Z,102809.88
2023-05-19T06:56:00.509Z,102811.09
2023-05-19T06:58:27.192Z,102816.88
2023-05-19T07:00:53.713Z,102819.03
2023-05-19T07:03:20.220Z,102825.63
2023-05-19T07:05:47.355Z,102822.31
2023-05-19T07:08:13.731Z,102818.31
2023-05-19T07:10:40.083Z,102824.75
2023-05-19T07:13:06.502Z,102820.41
2023-05-19T07:15:33.106Z,102824.03
2023-05-19T07:17:59.678Z,102824.06
2023-05-19T07:20:26.206Z,102825.09
2023-05-19T07:22:52.629Z,102818.91
2023-05-19T07:25:19.024Z,102822.78
2023-05-19T07:27:45.948Z,102810.56
2023-05-19T07:30:12.510Z,102809.72
2023-05-19T07:32:38.955Z,102816.09
2023-05-19T07:35:05.940Z,102816.63
2023-05-19T07:37:32.424Z,102822.16
2023-05-19T07:39:58.815Z,102821.53
2023-05-19T07:42:25.226Z,102816.09
2023-05-19T07:44:51.600Z,102818.03
2023-05-19T07:47:17.966Z,102812.78
2023-05-19T07:49:44.309Z,102813.97
2023-05-19T07:52:11.119Z,102815.84
2023-05-19T07:54:37.506Z,102814.94
2023-05-19T07:57:03.959Z,102818.59
2023-05-19T07:59:30.460Z,102815.97
2023-05-19T08:01:56.897Z,102812.34
2023-05-19T08:04:23.472Z,102811.66
2023-05-19T08:06:49.869Z,102815.69
2023-05-19T08:09:16.251Z,102809.72
2023-05-19T08:11:42.587Z,102805.31
2023-05-19T08:14:09.036Z,102811.34
2023-05-19T08:16:35.479Z,102810.44
2023-05-19T08:19:04.836Z,102814.94
2023-05-19T08:21:34.649Z,102815.44
2023-05-19T08:24:01.709Z,102807.66
2023-05-19T08:26:28.421Z,102810.69
2023-05-19T08:28:54.758Z,102814.44
2023-05-19T08:31:22.501Z,102801.13
2023-05-19T08:33:48.905Z,102810.13
2023-05-19T08:36:15.279Z,102805.63
2023-05-19T08:38:41.611Z,102811.81
2023-05-19T08:41:08.246Z,102808.81
2023-05-19T08:43:34.647Z,102809.28
2023-05-19T08:46:01.061Z,102813.84
2023-05-19T08:48:29.299Z,102811.25
2023-05-19T08:51:15.967Z,102808.72
2023-05-19T08:53:48.210Z,102805.97
2023-05-19T08:56:16.583Z,102802.75
2023-05-19T08:58:44.228Z,102794.09
2023-05-19T09:01:13.493Z,102791.84
2023-05-19T09:03:41.096Z,102796.72
2023-05-19T09:06:14.201Z,102795.13
2023-05-19T09:08:41.433Z,102785.22
2023-05-19T09:11:08.975Z,102788.06
2023-05-19T09:13:35.341Z,102785.53
2023-05-19T09:16:02.121Z,102783.81
2023-05-19T09:18:28.932Z,102781.22
2023-05-19T09:21:00.278Z,102783.84
2023-05-19T09:23:28.804Z,102787.31
2023-05-19T09:25:55.744Z,102773.91
2023-05-19T09:28:30.479Z,102785.53
2023-05-19T09:31:03.741Z,102787.97
2023-05-19T09:33:31.019Z,102787.19
2023-05-19T09:35:57.476Z,102783.56
2023-05-19T09:38:24.697Z,102792.22
2023-05-19T09:40:52.201Z,102793.19
2023-05-19T09:43:18.602Z,102789.81
2023-05-19T09:45:45.043Z,102791.81
2023-05-19T09:48:11.481Z,102786.56
2023-05-19T09:50:38.207Z,102792.75
2023-05-19T09:53:04.592Z,102787.19
2023-05-19T09:55:33.020Z,102787.28
2023-05-19T09:58:04.769Z,102783.03
2023-05-19T10:00:32.717Z,102775.06
2023-05-19T10:03:00.384Z,102772.41
2023-05-19T10:05:27.141Z,102767.09
2023-05-19T10:07:54.519Z,102766.22
2023-05-19T10:10:21.839Z,102769.75
2023-05-19T10:12:48.940Z,102759.94
2023-05-19T10:15:16.911Z,102763.50
2023-05-19T10:17:43.950Z,102760.84
2023-05-19T10:20:12.644Z,102750.13
2023-05-19T10:22:39.837Z,102754.56
2023-05-19T10:25:07.051Z,102746.50
2023-05-19T10:27:38.872Z,102750.13
2023-05-19T10:30:11.836Z,102741.22
2023-05-19T10:32:40.424Z,102742.91
2023-05-19T10:35:20.485Z,102743.78
2023-05-19T10:37:46.943Z,102751.59
2023-05-19T10:40:20.185Z,102738.41
2023-05-19T10:43:04.980Z,102743.88
2023-05-19T10:45:33.490Z,102743.88
2023-05-19T10:48:00.134Z,102738.31
2023-05-19T10:50:26.558Z,102732.22
2023-05-19T10:52:54.386Z,102736.47
2023-05-19T10:55:40.732Z,102732.75
2023-05-19T10:58:07.327Z,102730.13
2023-05-19T11:00:33.872Z,102723.41
2023-05-19T11:03:16.356Z,102725.34
2023-05-19T11:05:45.569Z,102725.56
2023-05-19T11:08:12.393Z,102728.47
2023-05-19T11:10:39.047Z,102723.19
2023-05-19T11:13:06.594Z,102722.34
2023-05-19T11:15:37.174Z,102730.72
2023-05-19T11:18:04.547Z,102724.97
2023-05-19T11:20:35.111Z,102713.78
2023-05-19T11:23:04.574Z,102722.16
2023-05-19T11:25:51.164Z,102714.63
2023-05-19T11:28:25.715Z,102723.94
2023-05-19T11:30:53.807Z,102718.44
2023-05-19T11:33:21.513Z,102714.38
2023-05-19T11:35:50.326Z,102717.13
2023-05-19T11:38:17.111Z,102714.16
2023-05-19T11:40:43.822Z,102713.03
2023-05-19T11:43:10.401Z,102709.63
2023-05-19T11:45:37.014Z,102709.63
2023-05-19T11:48:03.851Z,102711.72
2023-05-19T11:50:31.244Z,102703.09
2023-05-19T11:52:59.732Z,102712.78
2023-05-19T11:55:26.580Z,102706.59
2023-05-19T12:00:29.317Z,102700.84
2023-05-19T12:02:56.203Z,102701.97
2023-05-19T12:05:23.791Z,102705.72
2023-05-19T12:07:51.404Z,102702.75
2023-05-19T12:10:19.936Z,102709.41
2023-05-19T12:12:46.335Z,102706.25
2023-05-19T12:15:12.746Z,102701.81
2023-05-19T12:17:39.196Z,102698.91
2023-05-19T12:20:06.004Z,102696.97
2023-05-19T12:22:32.441Z,102702.41
2023-05-19T12:24:59.361Z,102696.63
2023-05-19T12:27:28.682Z,102695.06
2023-05-19T12:29:55.705Z,102700.69
2023-05-19T12:32:26.204Z,102696.47
2023-05-19T12:34:53.197Z,102679.22
2023-05-19T12:37:19.668Z,102689.19
2023-05-19T12:39:46.171Z,102681.16
2023-05-19T12:42:13.012Z,102684.06
2023-05-19T12:44:39.558Z,102684.56
2023-05-19T12:47:07.144Z,102684.88
2023-05-19T12:49:34.056Z,102686.31
2023-05-19T12:52:05.635Z,102685.50
2023-05-19T12:54:35.981Z,102685.66
2023-05-19T12:57:05.029Z,102689.09
2023-05-19T12:59:38.462Z,102696.50
2023-05-19T13:02:06.404Z,102691.34
2023-05-19T13:04:33.079Z,102686.94
2023-05-19T13:06:59.536Z,102681.84
2023-05-19T13:09:26.688Z,102686.63
2023-05-19T13:11:54.039Z,102675.28
2023-05-19T13:14:20.714Z,102679.94
2023-05-19T13:16:47.268Z,102673.44
2023-05-19T13:19:24.938Z,102676.53
2023-05-19T13:21:52.349Z,102675.91
2023-05-19T13:24:18.794Z,102673.16
2023-05-19T13:26:45.445Z,102666.56
2023-05-19T13:29:11.956Z,102666.34
2023-05-19T13:31:38.445Z,102662.97
2023-05-19T13:34:04.976Z,102666.03
2023-05-19T13:36:33.323Z,102664.00
2023-05-19T13:39:00.798Z,102667.78
2023-05-19T13:41:29.273Z,102664.16
2023-05-19T13:44:01.328Z,102666.66
2023-05-19T13:46:40.760Z,102652.19
2023-05-19T13:49:11.369Z,102660.69
2023-05-19T13:51:37.784Z,102651.69
2023-05-19T13:54:05.047Z,102650.78
2023-05-19T13:56:31.728Z,102652.34
2023-05-19T13:58:58.277Z,102657.56
2023-05-19T14:01:24.756Z,102644.69
2023-05-19T14:03:51.526Z,102649.44
2023-05-19T14:06:18.085Z,102640.53
2023-05-19T14:08:44.685Z,102641.91
2023-05-19T14:11:17.119Z,102649.75
2023-05-19T14:13:43.535Z,102646.44
2023-05-19T14:16:10.195Z,102636.03
2023-05-19T14:18:36.589Z,102635.88
2023-05-19T14:21:03.139Z,102638.75
2023-05-19T14:23:30.865Z,102637.50
2023-05-19T14:25:57.230Z,102637.56
2023-05-19T14:28:23.596Z,102643.44
2023-05-19T14:30:51.067Z,102644.75
2023-05-19T14:33:17.620Z,102655.34
2023-05-19T14:35:44.027Z,102641.72
2023-05-19T14:38:10.639Z,102640.44
2023-05-19T14:40:37.907Z,102648.72
2023-05-19T14:43:04.333Z,102650.28
2023-05-19T14:45:30.687Z,102652.88
2023-05-19T14:47:57.280Z,102652.59
2023-05-19T14:50:23.776Z,102641.75
2023-05-19T14:52:50.187Z,102648.84
2023-05-19T14:55:16.862Z,102645.50
2023-05-19T14:57:43.204Z,102651.28
2023-05-19T15:00:10.367Z,102650.91
2023-05-19T15:02:36.892Z,102648.41
2023-05-19T15:05:03.660Z,102655.72
2023-05-19T15:07:30.134Z,102652.63
2023-05-19T15:09:56.546Z,102646.31
2023-05-19T15:12:22.974Z,102654.13
2023-05-19T15:14:49.369Z,102638.13
2023-05-19T15:17:15.864Z,102639.44
2023-05-19T15:19:42.991Z,102635.69
2023-05-19T15:22:09.349Z,102637.53
2023-05-19T15:24:35.728Z,102635.31
2023-05-19T15:27:02.444Z,102634.09
2023-05-19T15:29:28.863Z,102627.88
2023-05-19T15:31:56.008Z,102632.25
2023-05-19T15:34:22.470Z,102636.41
2023-05-19T15:36:49.649Z,102633.06
2023-05-19T15:39:16.812Z,102631.59
2023-05-19T15:41:44.763Z,102632.03
2023-05-19T15:44:11.305Z,102637.44
2023-05-19T15:46:37.824Z,102628.59
2023-05-19T15:49:04.230Z,102626.00
2023-05-19T15:51:31.198Z,102619.81
2023-05-19T15:53:57.628Z,102627.03
2023-05-19T15:56:23.994Z,102626.06
2023-05-19T15:58:50.975Z,102628.88
2023-05-19T16:01:17.795Z,102621.81
2023-05-19T16:03:44.952Z,102625.31
2023-05-19T16:06:11.600Z,102620.66
2023-05-19T16:08:38.115Z,102621.56
2023-05-19T16:11:04.572Z,102631.28
2023-05-19T16:13:32.662Z,102618.69
2023-05-19T16:15:59.227Z,102623.28
2023-05-19T16:18:25.963Z,102614.31
2023-05-19T16:20:52.497Z,102621.44
2023-05-19T16:23:18.881Z,102622.06
2023-05-19T16:25:45.310Z,102626.56
2023-05-19T16:28:11.690Z,102621.38
2023-05-19T16:30:38.088Z,102626.56
2023-05-19T16:33:04.861Z,102615.84
2023-05-19T16:35:31.477Z,102619.28
2023-05-19T16:37:58.044Z,102627.22
2023-05-19T16:40:24.483Z,102628.13
2023-05-19T16:42:52.670Z,102624.50
2023-05-19T16:45:19.114Z,102623.56
2023-05-19T16:47:45.648Z,102624.81
2023-05-19T16:50:12.942Z,102613.13
2023-05-19T16:52:39.274Z,102614.91
2023-05-19T16:55:06.244Z,102612.22
2023-05-19T16:57:34.397Z,102609.75
2023-05-19T17:00:00.827Z,102607.91
2023-05-19T17:02:28.164Z,102609.72
2023-05-19T17:04:55.502Z,102617.97
2023-05-19T17:07:24.972Z,102613.59
2023-05-19T17:09:53.012Z,102608.31
2023-05-19T17:12:20.352Z,102612.91
2023-05-19T17:14:46.817Z,102621.88
2023-05-19T17:17:13.338Z,102614.72
2023-05-19T17:19:40.032Z,102611.09
2023-05-19T17:22:06.554Z,102610.13
2023-05-19T17:24:33.378Z,102618.97
2023-05-19T17:27:00.189Z,102613.63
2023-05-19T17:29:29.563Z,102601.09
2023-05-19T17:31:55.973Z,102614.31
2023-05-19T17:34:22.600Z,102622.25
2023-05-19T17:36:49.710Z,102610.66
2023-05-19T17:39:16.692Z,102610.56
2023-05-19T17:41:43.430Z,102614.91
2023-05-19T17:44:11.410Z,102609.59
2023-05-19T17:46:39.351Z,102615.75
2023-05-19T17:49:06.521Z,102613.03
2023-05-19T17:51:33.105Z,102612.81
2023-05-19T17:54:01.964Z,102616.38
2023-05-19T17:56:30.701Z,102615.38
2023-05-19T17:58:57.205Z,102619.75
2023-05-19T18:01:25.836Z,102626.78
2023-05-19T18:03:52.512Z,102634.72
2023-05-19T18:06:19.412Z,102631.09
2023-05-19T18:08:47.199Z,102624.69
2023-05-19T18:11:16.014Z,102628.25
2023-05-19T18:13:42.990Z,102637.94
2023-05-19T18:16:10.135Z,102628.16
2023-05-19T18:18:37.452Z,102637.84
2023-05-19T18:21:03.939Z,102629.78
2023-05-19T18:23:30.454Z,102633.22
2023-05-19T18:25:57.030Z,102633.06
2023-05-19T18:28:24.017Z,102639.25
2023-05-19T18:31:00.191Z,102642.69
2023-05-19T18:33:28.615Z,102644.34
2023-05-19T18:35:56.608Z,102641.66
2023-05-19T18:38:26.384Z,102638.81
2023-05-19T18:40:53.333Z,102650.22
2023-05-19T18:43:19.848Z,102650.09
2023-05-19T18:45:48.999Z,102657.97
2023-05-19T18:48:15.779Z,102662.31
2023-05-19T18:50:44.064Z,102667.53
2023-05-19T18:53:11.510Z,102658.56
2023-05-19T18:55:38.580Z,102657.53
2023-05-19T18:58:05.102Z,102659.16
2023-05-19T19:00:31.681Z,102661.66
2023-05-19T19:02:58.382Z,102663.25
2023-05-19T19:05:24.774Z,102670.22
2023-05-19T19:07:52.384Z,102670.19
2023-05-19T19:10:19.245Z,102672.66
2023-05-19T19:12:45.724Z,102672.50
2023-05-19T19:15:12.240Z,102676.75
2023-05-19T19:17:40.014Z,102679.19
2023-05-19T19:20:07.838Z,102678.13
2023-05-19T19:22:34.309Z,102684.13
2023-05-19T19:25:00.801Z,102687.41
2023-05-19T19:27:30.899Z,102693.44
2023-05-19T19:29:58.466Z,102691.50
2023-05-19T19:32:24.944Z,102699.19
2023-05-19T19:34:54.586Z,102695.44
2023-05-19T19:37:21.009Z,102697.91
2023-05-19T19:39:47.703Z,102696.91
2023-05-19T19:42:14.298Z,102694.19
2023-05-19T19:44:40.792Z,102698.44
2023-05-19T19:47:07.365Z,102694.75
2023-05-19T19:49:33.832Z,102700.78
2023-05-19T19:52:00.340Z,102697.09
2023-05-19T19:54:26.919Z,102705.81
2023-05-19T19:56:53.302Z,102708.31
2023-05-19T19:59:19.830Z,102708.13
2023-05-19T20:01:46.268Z,102702.69
2023-05-19T20:04:12.925Z,102702.56
2023-05-19T20:06:39.414Z,102700.69
2023-05-19T20:09:05.896Z,102707.53
2023-05-19T20:11:32.355Z,102711.91
2023-05-19T20:13:58.748Z,102719.75
2023-05-19T20:16:25.317Z,102717.88
2023-05-19T20:18:51.824Z,102717.81
2023-05-19T20:21:18.225Z,102720.38
2023-05-19T20:23:44.700Z,102722.91
2023-05-19T20:26:13.194Z,102717.50
2023-05-19T20:28:40.231Z,102723.53
2023-05-19T20:31:07.004Z,102725.16
2023-05-19T20:33:33.421Z,102725.13
2023-05-19T20:35:59.868Z,102725.00
2023-05-19T20:38:26.368Z,102731.06
2023-05-19T20:40:53.693Z,102730.97
2023-05-19T20:43:20.092Z,102734.34
2023-05-19T20:45:46.564Z,102734.19
2023-05-19T20:48:13.061Z,102733.19
2023-05-19T20:50:39.541Z,102735.72
2023-05-19T20:53:07.306Z,102738.19
2023-05-19T20:55:36.033Z,102740.75
2023-05-19T20:58:02.619Z,102745.00
2023-05-19T21:00:30.387Z,102737.72
2023-05-19T21:02:57.190Z,102747.31
2023-05-19T21:05:23.627Z,102741.97
2023-05-19T21:07:49.993Z,102740.03
2023-05-19T21:10:17.780Z,102740.66
2023-05-19T21:12:44.182Z,102734.28
2023-05-19T21:15:10.846Z,102732.38
2023-05-19T21:17:37.372Z,102737.50
2023-05-19T21:20:04.261Z,102741.84
2023-05-19T21:22:30.775Z,102742.59
2023-05-19T21:24:57.278Z,102739.00
2023-05-19T21:27:23.692Z,102742.31
2023-05-19T21:29:54.078Z,102739.53
2023-05-19T21:32:20.870Z,102744.47
2023-05-19T21:34:47.508Z,102742.44
2023-05-19T21:37:13.959Z,102744.00
2023-05-19T21:39:40.339Z,102739.50
2023-05-19T21:42:06.667Z,102741.03
2023-05-19T21:44:33.080Z,102739.06
2023-05-19T21:46:59.555Z,102738.84
2023-05-19T21:49:26.056Z,102741.25
2023-05-19T21:51:52.434Z,102737.50
2023-05-19T21:54:18.791Z,102736.44
2023-05-19T21:56:45.442Z,102744.34
2023-05-19T21:59:12.058Z,102743.44
2023-05-19T22:01:38.674Z,102749.31
2023-05-19T22:04:05.339Z,102750.97
2023-05-19T22:06:31.753Z,102743.72
2023-05-19T22:09:01.082Z,102740.09
2023-05-19T22:11:27.611Z,102739.00
2023-05-19T22:13:56.674Z,102751.22
2023-05-19T22:16:23.154Z,102747.63
2023-05-19T22:18:49.597Z,102747.53
2023-05-19T22:21:16.117Z,102746.44
2023-05-19T22:23:42.472Z,102743.59
2023-05-19T22:26:09.157Z,102744.25
2023-05-19T22:28:35.611Z,102743.25
2023-05-19T22:31:02.134Z,102744.03
2023-05-19T22:33:28.470Z,102751.00
2023-05-19T22:35:55.080Z,102738.75
2023-05-19T22:38:21.493Z,102744.75
2023-05-19T22:40:49.594Z,102742.75
2023-05-19T22:43:16.123Z,102747.06
2023-05-19T22:45:42.613Z,102750.47
2023-05-19T22:48:09.122Z,102751.19
2023-05-19T22:50:35.496Z,102757.25
2023-05-19T22:53:01.936Z,102749.97
2023-05-19T22:55:28.266Z,102757.59
2023-05-19T22:57:54.620Z,102753.88
2023-05-19T23:00:21.185Z,102754.59
2023-05-19T23:02:47.588Z,102751.97
2023-05-19T23:05:13.988Z,102749.19
2023-05-19T23:07:40.404Z,102751.59
2023-05-19T23:10:07.532Z,102760.06
2023-05-19T23:12:34.074Z,102760.78
2023-05-19T23:15:00.690Z,102768.41
2023-05-19T23:17:27.107Z,102763.03
2023-05-19T23:19:53.520Z,102765.38
2023-05-19T23:22:19.927Z,102770.34
2023-05-19T23:24:46.435Z,102757.88
2023-05-19T23:27:12.804Z,102764.06
2023-05-19T23:29:39.135Z,102763.00
2023-05-19T23:32:05.648Z,102768.09
2023-05-19T23:34:32.004Z,102769.66
2023-05-19T23:36:58.333Z,102763.38
2023-05-19T23:39:25.421Z,102764.16
2023-05-19T23:41:51.828Z,102769.13
2023-05-19T23:44:18.504Z,102760.16
2023-05-19T23:46:44.921Z,102764.47
2023-05-19T23:49:11.363Z,102762.59
2023-05-19T23:51:37.701Z,102768.72
2023-05-19T23:54:04.058Z,102767.00
2023-05-19T23:56:30.516Z,102760.91
2023-05-19T23:58:56.875Z,102767.09
